Hauptseite
METAR-TAF:

METAR-TAF

Flughäfen :

St. Gallen, Schweiz

Flugplatz St. Gallen-Altenrhein

Breite: 47-29-06N, Länge: 009-33-43E, Höhe: 398 m

Beobachtung

Neuester Wetterbericht von vor 32 Minuten, um 11:20 UTC
Wind 4 kt aus Südost
Temperatur 6°C
Luftfeuchtigkeit 87%
Luftdruck 1028 hPa
Sichtweite 10 km oder mehr
Durchbrochene Bewölkung in der Höhe von 3300 ft
Schauer in der Nähe

METAR: LSZR 231120Z 13004KT 9999 VCSH BKN033 06/04 Q1028 NOSIG RMK H

Zeit: 12:52 (11:52 UTC)

Prognose

Neuester Wetterbericht von vor 27 Minuten, um 11:25 UTC
Gültige Prognose vom 23 um 12 UTC bis 23 um 21 UTC
Wind 3 kt aus unterschiedlichen Richtungen
Sichtweite 10 km oder mehr
Durchbrochene Bewölkung in der Höhe von 2500 ft

TAF: LSZR 231125Z 2312/2321 VRB03KT 9999 BKN025

Wetterbeobachtungen und Prognosen von mehr als 4000 Flughäfen (METAR und TAF Bericht).

Die verfügbaren Stationen werden durch gelbe und rote Markierungen auf der Karte dargestellt.

Führen Sie die Maus auf sie, um den Namen der Station zu sehen.

Darauf klicken, um die Beobachtung von Wetterbeobachtungen und Prognosen zu sehen.

Um die Karte zu ändern : klicken Sie auf den grünen Tasten mit einem schwarzen Kreuz Zum Vergrößern, auf den grünen Button mit einem Gedankenstrich zu verkleinern, oder auf die grünen Pfeile für benachbarte Karten.


METAR-TAF: